sensor_id;sensor_type;location;lat;lon;timestamp;temperature;humidity
12907;DHT22;6521;50.498;8.474;2024-03-29T00:00:38;8.03;64.67
12907;DHT22;6521;50.498;8.474;2024-03-29T00:03:09;7.92;64.90
12907;DHT22;6521;50.498;8.474;2024-03-29T00:05:43;7.92;65.02
12907;DHT22;6521;50.498;8.474;2024-03-29T00:08:15;7.92;64.53
12907;DHT22;6521;50.498;8.474;2024-03-29T00:10:49;7.87;64.60
12907;DHT22;6521;50.498;8.474;2024-03-29T00:13:22;7.97;64.37
12907;DHT22;6521;50.498;8.474;2024-03-29T00:15:53;7.93;64.29
12907;DHT22;6521;50.498;8.474;2024-03-29T00:18:24;8.00;64.19
12907;DHT22;6521;50.498;8.474;2024-03-29T00:20:56;7.97;64.27
12907;DHT22;6521;50.498;8.474;2024-03-29T00:23:29;7.96;64.33
12907;DHT22;6521;50.498;8.474;2024-03-29T00:26:06;7.89;64.48
12907;DHT22;6521;50.498;8.474;2024-03-29T00:28:40;7.86;64.67
12907;DHT22;6521;50.498;8.474;2024-03-29T00:31:11;7.83;64.77
12907;DHT22;6521;50.498;8.474;2024-03-29T00:33:44;7.78;64.89
12907;DHT22;6521;50.498;8.474;2024-03-29T00:36:16;7.79;64.49
12907;DHT22;6521;50.498;8.474;2024-03-29T00:39:04;7.85;64.17
12907;DHT22;6521;50.498;8.474;2024-03-29T00:41:35;7.83;64.23
12907;DHT22;6521;50.498;8.474;2024-03-29T00:44:06;7.90;63.75
12907;DHT22;6521;50.498;8.474;2024-03-29T00:46:38;7.94;63.54
12907;DHT22;6521;50.498;8.474;2024-03-29T00:49:11;8.09;62.83
12907;DHT22;6521;50.498;8.474;2024-03-29T00:51:42;8.04;63.04
12907;DHT22;6521;50.498;8.474;2024-03-29T00:54:13;8.09;62.61
12907;DHT22;6521;50.498;8.474;2024-03-29T00:56:45;8.16;62.55
12907;DHT22;6521;50.498;8.474;2024-03-29T00:59:16;8.29;61.95
12907;DHT22;6521;50.498;8.474;2024-03-29T01:01:48;8.27;62.00
12907;DHT22;6521;50.498;8.474;2024-03-29T01:04:20;8.31;61.98
12907;DHT22;6521;50.498;8.474;2024-03-29T01:06:51;8.34;61.84
12907;DHT22;6521;50.498;8.474;2024-03-29T01:09:22;8.38;62.06
12907;DHT22;6521;50.498;8.474;2024-03-29T01:11:52;8.41;62.05
12907;DHT22;6521;50.498;8.474;2024-03-29T01:14:24;8.51;61.56
12907;DHT22;6521;50.498;8.474;2024-03-29T01:17:02;8.58;61.36
12907;DHT22;6521;50.498;8.474;2024-03-29T01:19:33;8.68;61.08
12907;DHT22;6521;50.498;8.474;2024-03-29T01:22:08;8.65;61.39
12907;DHT22;6521;50.498;8.474;2024-03-29T01:24:46;8.68;60.93
12907;DHT22;6521;50.498;8.474;2024-03-29T01:27:31;8.64;61.38
12907;DHT22;6521;50.498;8.474;2024-03-29T01:30:02;8.61;61.30
12907;DHT22;6521;50.498;8.474;2024-03-29T01:32:36;8.58;61.61
12907;DHT22;6521;50.498;8.474;2024-03-29T01:35:07;8.64;60.68
12907;DHT22;6521;50.498;8.474;2024-03-29T01:37:41;8.71;60.52
12907;DHT22;6521;50.498;8.474;2024-03-29T01:40:17;8.72;60.39
12907;DHT22;6521;50.498;8.474;2024-03-29T01:42:58;8.81;59.92
12907;DHT22;6521;50.498;8.474;2024-03-29T01:45:32;8.81;59.83
12907;DHT22;6521;50.498;8.474;2024-03-29T01:48:03;8.79;60.46
12907;DHT22;6521;50.498;8.474;2024-03-29T01:50:42;8.73;61.16
12907;DHT22;6521;50.498;8.474;2024-03-29T01:53:26;8.69;61.56
12907;DHT22;6521;50.498;8.474;2024-03-29T01:55:58;8.71;61.13
12907;DHT22;6521;50.498;8.474;2024-03-29T01:58:31;8.73;60.87
12907;DHT22;6521;50.498;8.474;2024-03-29T02:01:02;8.76;60.83
12907;DHT22;6521;50.498;8.474;2024-03-29T02:03:36;8.75;61.35
12907;DHT22;6521;50.498;8.474;2024-03-29T02:06:08;8.75;61.63
12907;DHT22;6521;50.498;8.474;2024-03-29T02:08:41;8.69;61.46
12907;DHT22;6521;50.498;8.474;2024-03-29T02:11:12;8.65;61.65
12907;DHT22;6521;50.498;8.474;2024-03-29T02:13:44;8.68;61.95
12907;DHT22;6521;50.498;8.474;2024-03-29T02:16:15;8.62;62.91
12907;DHT22;6521;50.498;8.474;2024-03-29T02:18:50;8.55;63.48
12907;DHT22;6521;50.498;8.474;2024-03-29T02:21:22;8.50;63.78
12907;DHT22;6521;50.498;8.474;2024-03-29T02:24:07;8.37;64.17
12907;DHT22;6521;50.498;8.474;2024-03-29T02:26:38;8.31;64.22
12907;DHT22;6521;50.498;8.474;2024-03-29T02:29:17;8.26;64.48
12907;DHT22;6521;50.498;8.474;2024-03-29T02:31:48;8.24;65.48
12907;DHT22;6521;50.498;8.474;2024-03-29T02:34:20;8.17;65.57
12907;DHT22;6521;50.498;8.474;2024-03-29T02:36:52;8.13;65.65
12907;DHT22;6521;50.498;8.474;2024-03-29T02:39:23;8.10;65.83
12907;DHT22;6521;50.498;8.474;2024-03-29T02:41:57;8.00;66.20
12907;DHT22;6521;50.498;8.474;2024-03-29T02:44:37;7.96;66.57
12907;DHT22;6521;50.498;8.474;2024-03-29T02:47:08;7.94;66.59
12907;DHT22;6521;50.498;8.474;2024-03-29T02:49:40;7.93;67.04
12907;DHT22;6521;50.498;8.474;2024-03-29T02:52:15;7.90;66.94
12907;DHT22;6521;50.498;8.474;2024-03-29T02:54:49;7.86;66.53
12907;DHT22;6521;50.498;8.474;2024-03-29T02:57:21;7.94;66.46
12907;DHT22;6521;50.498;8.474;2024-03-29T02:59:52;7.96;66.03
12907;DHT22;6521;50.498;8.474;2024-03-29T03:02:28;7.99;65.35
12907;DHT22;6521;50.498;8.474;2024-03-29T03:05:03;8.02;64.18
12907;DHT22;6521;50.498;8.474;2024-03-29T03:07:44;8.09;63.81
12907;DHT22;6521;50.498;8.474;2024-03-29T03:10:34;8.16;63.70
12907;DHT22;6521;50.498;8.474;2024-03-29T03:13:28;8.14;63.11
12907;DHT22;6521;50.498;8.474;2024-03-29T03:16:03;8.21;62.44
12907;DHT22;6521;50.498;8.474;2024-03-29T03:18:34;8.31;61.96
12907;DHT22;6521;50.498;8.474;2024-03-29T03:21:06;8.33;61.79
12907;DHT22;6521;50.498;8.474;2024-03-29T03:23:36;8.47;60.76
12907;DHT22;6521;50.498;8.474;2024-03-29T03:26:07;8.51;60.73
12907;DHT22;6521;50.498;8.474;2024-03-29T03:28:40;8.62;60.56
12907;DHT22;6521;50.498;8.474;2024-03-29T03:31:11;8.65;61.98
12907;DHT22;6521;50.498;8.474;2024-03-29T03:33:44;8.60;63.51
12907;DHT22;6521;50.498;8.474;2024-03-29T03:36:17;8.57;63.94
12907;DHT22;6521;50.498;8.474;2024-03-29T03:38:54;8.51;64.22
12907;DHT22;6521;50.498;8.474;2024-03-29T03:41:27;8.50;64.14
12907;DHT22;6521;50.498;8.474;2024-03-29T03:43:59;8.50;64.52
12907;DHT22;6521;50.498;8.474;2024-03-29T03:46:32;8.41;64.06
12907;DHT22;6521;50.498;8.474;2024-03-29T03:49:02;8.37;64.93
12907;DHT22;6521;50.498;8.474;2024-03-29T03:51:40;8.27;65.42
12907;DHT22;6521;50.498;8.474;2024-03-29T03:54:11;8.26;65.65
12907;DHT22;6521;50.498;8.474;2024-03-29T03:56:42;8.23;64.83
12907;DHT22;6521;50.498;8.474;2024-03-29T03:59:16;8.29;64.35
12907;DHT22;6521;50.498;8.474;2024-03-29T04:01:47;8.31;63.43
12907;DHT22;6521;50.498;8.474;2024-03-29T04:04:25;8.45;63.30
12907;DHT22;6521;50.498;8.474;2024-03-29T04:07:10;8.50;63.38
12907;DHT22;6521;50.498;8.474;2024-03-29T04:09:44;8.45;63.24
12907;DHT22;6521;50.498;8.474;2024-03-29T04:12:15;8.50;63.00
12907;DHT22;6521;50.498;8.474;2024-03-29T04:14:47;8.51;63.33
12907;DHT22;6521;50.498;8.474;2024-03-29T04:17:18;8.62;62.39
12907;DHT22;6521;50.498;8.474;2024-03-29T04:19:48;8.67;62.03
12907;DHT22;6521;50.498;8.474;2024-03-29T04:22:20;8.60;62.30
12907;DHT22;6521;50.498;8.474;2024-03-29T04:25:06;8.58;62.44
12907;DHT22;6521;50.498;8.474;2024-03-29T04:27:37;8.55;62.76
12907;DHT22;6521;50.498;8.474;2024-03-29T04:30:12;8.60;62.75
12907;DHT22;6521;50.498;8.474;2024-03-29T04:32:48;8.61;62.62
12907;DHT22;6521;50.498;8.474;2024-03-29T04:36:01;8.69;62.32
12907;DHT22;6521;50.498;8.474;2024-03-29T04:38:32;8.68;61.84
12907;DHT22;6521;50.498;8.474;2024-03-29T04:41:04;8.64;62.09
12907;DHT22;6521;50.498;8.474;2024-03-29T04:43:36;8.68;62.34
12907;DHT22;6521;50.498;8.474;2024-03-29T04:46:12;8.79;62.47
12907;DHT22;6521;50.498;8.474;2024-03-29T04:48:53;8.82;62.60
12907;DHT22;6521;50.498;8.474;2024-03-29T04:51:27;8.88;62.66
12907;DHT22;6521;50.498;8.474;2024-03-29T04:53:58;8.89;63.20
12907;DHT22;6521;50.498;8.474;2024-03-29T04:56:34;8.91;63.62
12907;DHT22;6521;50.498;8.474;2024-03-29T04:59:09;8.93;64.09
12907;DHT22;6521;50.498;8.474;2024-03-29T05:01:41;9.05;64.18
12907;DHT22;6521;50.498;8.474;2024-03-29T05:04:14;9.03;64.61
12907;DHT22;6521;50.498;8.474;2024-03-29T05:06:47;9.10;64.68
12907;DHT22;6521;50.498;8.474;2024-03-29T05:09:18;9.15;64.90
12907;DHT22;6521;50.498;8.474;2024-03-29T05:11:49;9.18;65.12
12907;DHT22;6521;50.498;8.474;2024-03-29T05:14:22;9.22;65.38
12907;DHT22;6521;50.498;8.474;2024-03-29T05:16:56;9.29;65.90
12907;DHT22;6521;50.498;8.474;2024-03-29T05:19:29;9.23;66.42
12907;DHT22;6521;50.498;8.474;2024-03-29T05:22:01;9.22;66.70
12907;DHT22;6521;50.498;8.474;2024-03-29T05:24:32;9.22;67.18
12907;DHT22;6521;50.498;8.474;2024-03-29T05:27:06;9.16;67.63
12907;DHT22;6521;50.498;8.474;2024-03-29T05:29:37;9.16;68.29
12907;DHT22;6521;50.498;8.474;2024-03-29T05:32:20;9.15;68.84
12907;DHT22;6521;50.498;8.474;2024-03-29T05:34:53;9.06;69.26
12907;DHT22;6521;50.498;8.474;2024-03-29T05:37:24;8.96;69.83
12907;DHT22;6521;50.498;8.474;2024-03-29T05:39:58;8.86;70.66
12907;DHT22;6521;50.498;8.474;2024-03-29T05:42:32;8.73;71.65
12907;DHT22;6521;50.498;8.474;2024-03-29T05:45:28;8.68;71.55
12907;DHT22;6521;50.498;8.474;2024-03-29T05:48:00;8.60;72.41
12907;DHT22;6521;50.498;8.474;2024-03-29T05:50:31;8.52;72.68
12907;DHT22;6521;50.498;8.474;2024-03-29T05:53:03;8.54;73.02
12907;DHT22;6521;50.498;8.474;2024-03-29T05:55:36;8.44;73.62
12907;DHT22;6521;50.498;8.474;2024-03-29T05:58:08;8.42;73.91
12907;DHT22;6521;50.498;8.474;2024-03-29T06:00:39;8.41;74.59
12907;DHT22;6521;50.498;8.474;2024-03-29T06:03:10;8.36;75.02
12907;DHT22;6521;50.498;8.474;2024-03-29T06:05:41;8.26;75.85
12907;DHT22;6521;50.498;8.474;2024-03-29T06:08:12;8.19;76.34
12907;DHT22;6521;50.498;8.474;2024-03-29T06:10:43;8.21;76.66
12907;DHT22;6521;50.498;8.474;2024-03-29T06:13:15;8.09;77.52
12907;DHT22;6521;50.498;8.474;2024-03-29T06:16:20;8.06;77.91
12907;DHT22;6521;50.498;8.474;2024-03-29T06:19:10;7.99;78.44
12907;DHT22;6521;50.498;8.474;2024-03-29T06:21:42;7.97;78.89
12907;DHT22;6521;50.498;8.474;2024-03-29T06:24:13;7.96;79.16
12907;DHT22;6521;50.498;8.474;2024-03-29T06:26:45;7.94;79.25
12907;DHT22;6521;50.498;8.474;2024-03-29T06:29:17;7.87;79.64
12907;DHT22;6521;50.498;8.474;2024-03-29T06:31:47;7.93;79.87
12907;DHT22;6521;50.498;8.474;2024-03-29T06:34:21;7.93;79.89
12907;DHT22;6521;50.498;8.474;2024-03-29T06:36:53;7.94;80.21
12907;DHT22;6521;50.498;8.474;2024-03-29T06:39:23;7.92;80.39
12907;DHT22;6521;50.498;8.474;2024-03-29T06:41:56;7.99;80.32
12907;DHT22;6521;50.498;8.474;2024-03-29T06:44:28;8.03;80.27
12907;DHT22;6521;50.498;8.474;2024-03-29T06:46:59;8.09;80.26
12907;DHT22;6521;50.498;8.474;2024-03-29T06:49:31;8.07;80.41
12907;DHT22;6521;50.498;8.474;2024-03-29T06:52:04;8.09;80.62
12907;DHT22;6521;50.498;8.474;2024-03-29T06:54:36;8.13;80.85
12907;DHT22;6521;50.498;8.474;2024-03-29T06:57:08;8.19;80.72
12907;DHT22;6521;50.498;8.474;2024-03-29T06:59:41;8.24;80.74
12907;DHT22;6521;50.498;8.474;2024-03-29T07:02:12;8.24;80.94
12907;DHT22;6521;50.498;8.474;2024-03-29T07:04:43;8.27;81.12
12907;DHT22;6521;50.498;8.474;2024-03-29T07:07:14;8.37;81.14
12907;DHT22;6521;50.498;8.474;2024-03-29T07:09:45;8.33;81.58
12907;DHT22;6521;50.498;8.474;2024-03-29T07:12:18;8.29;82.01
12907;DHT22;6521;50.498;8.474;2024-03-29T07:14:50;8.27;82.08
12907;DHT22;6521;50.498;8.474;2024-03-29T07:17:21;8.37;82.10
12907;DHT22;6521;50.498;8.474;2024-03-29T07:19:51;8.29;82.31
12907;DHT22;6521;50.498;8.474;2024-03-29T07:22:22;8.31;82.51
12907;DHT22;6521;50.498;8.474;2024-03-29T07:24:56;8.34;82.68
12907;DHT22;6521;50.498;8.474;2024-03-29T07:27:28;8.38;82.73
12907;DHT22;6521;50.498;8.474;2024-03-29T07:30:06;8.36;82.82
12907;DHT22;6521;50.498;8.474;2024-03-29T07:32:43;8.37;82.96
12907;DHT22;6521;50.498;8.474;2024-03-29T07:35:15;8.34;82.99
12907;DHT22;6521;50.498;8.474;2024-03-29T07:37:47;8.36;83.00
12907;DHT22;6521;50.498;8.474;2024-03-29T07:40:22;8.40;82.91
12907;DHT22;6521;50.498;8.474;2024-03-29T07:42:53;8.44;83.00
12907;DHT22;6521;50.498;8.474;2024-03-29T07:45:25;8.47;82.91
12907;DHT22;6521;50.498;8.474;2024-03-29T07:47:56;8.55;82.74
12907;DHT22;6521;50.498;8.474;2024-03-29T07:50:29;8.57;82.71
12907;DHT22;6521;50.498;8.474;2024-03-29T07:53:01;8.69;82.71
12907;DHT22;6521;50.498;8.474;2024-03-29T07:55:35;8.78;82.78
12907;DHT22;6521;50.498;8.474;2024-03-29T07:58:09;8.88;83.23
12907;DHT22;6521;50.498;8.474;2024-03-29T08:00:40;8.86;83.41
12907;DHT22;6521;50.498;8.474;2024-03-29T08:03:12;8.92;83.54
12907;DHT22;6521;50.498;8.474;2024-03-29T08:06:02;8.98;83.60
12907;DHT22;6521;50.498;8.474;2024-03-29T08:08:39;9.06;83.70
12907;DHT22;6521;50.498;8.474;2024-03-29T08:11:12;9.19;83.45
12907;DHT22;6521;50.498;8.474;2024-03-29T08:13:45;9.19;83.43
12907;DHT22;6521;50.498;8.474;2024-03-29T08:16:18;9.24;83.21
12907;DHT22;6521;50.498;8.474;2024-03-29T08:18:49;9.27;83.28
12907;DHT22;6521;50.498;8.474;2024-03-29T08:21:20;9.31;83.07
12907;DHT22;6521;50.498;8.474;2024-03-29T08:23:52;9.36;82.92
12907;DHT22;6521;50.498;8.474;2024-03-29T08:26:30;9.39;82.91
12907;DHT22;6521;50.498;8.474;2024-03-29T08:29:01;9.40;82.95
12907;DHT22;6521;50.498;8.474;2024-03-29T08:31:32;9.47;82.91
12907;DHT22;6521;50.498;8.474;2024-03-29T08:34:05;9.48;82.86
12907;DHT22;6521;50.498;8.474;2024-03-29T08:36:37;9.51;82.71
12907;DHT22;6521;50.498;8.474;2024-03-29T08:39:08;9.58;82.59
12907;DHT22;6521;50.498;8.474;2024-03-29T08:41:39;9.60;82.57
12907;DHT22;6521;50.498;8.474;2024-03-29T08:44:11;9.62;82.47
12907;DHT22;6521;50.498;8.474;2024-03-29T08:46:42;9.64;82.41
12907;DHT22;6521;50.498;8.474;2024-03-29T08:49:13;9.71;82.24
12907;DHT22;6521;50.498;8.474;2024-03-29T08:51:47;9.73;82.30
12907;DHT22;6521;50.498;8.474;2024-03-29T08:54:19;9.74;82.07
12907;DHT22;6521;50.498;8.474;2024-03-29T08:56:52;9.74;81.94
12907;DHT22;6521;50.498;8.474;2024-03-29T08:59:22;9.80;81.83
12907;DHT22;6521;50.498;8.474;2024-03-29T09:01:53;9.77;81.46
12907;DHT22;6521;50.498;8.474;2024-03-29T09:04:27;9.80;80.75
12907;DHT22;6521;50.498;8.474;2024-03-29T09:06:58;9.87;80.04
12907;DHT22;6521;50.498;8.474;2024-03-29T09:09:31;9.82;79.83
12907;DHT22;6521;50.498;8.474;2024-03-29T09:12:02;9.89;79.71
12907;DHT22;6521;50.498;8.474;2024-03-29T09:14:33;9.94;79.21
12907;DHT22;6521;50.498;8.474;2024-03-29T09:17:04;9.95;79.23
12907;DHT22;6521;50.498;8.474;2024-03-29T09:19:37;9.91;78.75
12907;DHT22;6521;50.498;8.474;2024-03-29T09:22:08;9.99;78.58
12907;DHT22;6521;50.498;8.474;2024-03-29T09:24:40;10.05;78.45
12907;DHT22;6521;50.498;8.474;2024-03-29T09:27:11;10.03;78.76
12907;DHT22;6521;50.498;8.474;2024-03-29T09:29:47;10.03;79.04
12907;DHT22;6521;50.498;8.474;2024-03-29T09:32:19;9.97;79.21
12907;DHT22;6521;50.498;8.474;2024-03-29T09:34:54;10.05;79.30
12907;DHT22;6521;50.498;8.474;2024-03-29T09:37:25;9.95;79.67
12907;DHT22;6521;50.498;8.474;2024-03-29T09:39:56;10.03;79.70
12907;DHT22;6521;50.498;8.474;2024-03-29T09:42:29;9.97;79.98
12907;DHT22;6521;50.498;8.474;2024-03-29T09:45:06;9.91;80.33
12907;DHT22;6521;50.498;8.474;2024-03-29T09:47:38;9.94;80.43
12907;DHT22;6521;50.498;8.474;2024-03-29T09:50:11;10.02;79.90
12907;DHT22;6521;50.498;8.474;2024-03-29T09:52:46;10.01;79.53
12907;DHT22;6521;50.498;8.474;2024-03-29T09:55:22;10.01;78.82
12907;DHT22;6521;50.498;8.474;2024-03-29T09:57:54;10.03;78.38
12907;DHT22;6521;50.498;8.474;2024-03-29T10:00:26;10.02;77.08
12907;DHT22;6521;50.498;8.474;2024-03-29T10:02:58;10.03;77.35
12907;DHT22;6521;50.498;8.474;2024-03-29T10:05:31;10.02;77.00
12907;DHT22;6521;50.498;8.474;2024-03-29T10:08:04;10.03;76.88
12907;DHT22;6521;50.498;8.474;2024-03-29T10:10:38;10.05;76.54
12907;DHT22;6521;50.498;8.474;2024-03-29T10:13:11;10.13;76.91
12907;DHT22;6521;50.498;8.474;2024-03-29T10:15:42;10.23;76.97
12907;DHT22;6521;50.498;8.474;2024-03-29T10:18:29;10.30;76.80
12907;DHT22;6521;50.498;8.474;2024-03-29T10:21:02;10.29;76.64
12907;DHT22;6521;50.498;8.474;2024-03-29T10:23:36;10.29;76.18
12907;DHT22;6521;50.498;8.474;2024-03-29T10:26:08;10.35;76.06
12907;DHT22;6521;50.498;8.474;2024-03-29T10:28:43;10.29;76.19
12907;DHT22;6521;50.498;8.474;2024-03-29T10:31:17;10.26;76.32
12907;DHT22;6521;50.498;8.474;2024-03-29T10:33:50;10.26;76.31
12907;DHT22;6521;50.498;8.474;2024-03-29T10:36:25;10.22;76.45
12907;DHT22;6521;50.498;8.474;2024-03-29T10:38:57;10.20;76.71
12907;DHT22;6521;50.498;8.474;2024-03-29T10:41:28;10.25;76.38
12907;DHT22;6521;50.498;8.474;2024-03-29T10:44:02;10.22;76.77
12907;DHT22;6521;50.498;8.474;2024-03-29T10:46:34;10.22;77.11
12907;DHT22;6521;50.498;8.474;2024-03-29T10:49:09;10.20;77.15
12907;DHT22;6521;50.498;8.474;2024-03-29T10:51:41;10.28;77.36
12907;DHT22;6521;50.498;8.474;2024-03-29T10:54:12;10.32;77.86
12907;DHT22;6521;50.498;8.474;2024-03-29T10:56:47;10.36;78.14
12907;DHT22;6521;50.498;8.474;2024-03-29T10:59:22;10.45;78.37
12907;DHT22;6521;50.498;8.474;2024-03-29T11:01:59;10.30;78.78
12907;DHT22;6521;50.498;8.474;2024-03-29T11:04:36;10.39;79.14
12907;DHT22;6521;50.498;8.474;2024-03-29T11:07:20;10.36;79.18
12907;DHT22;6521;50.498;8.474;2024-03-29T11:09:58;10.32;79.40
12907;DHT22;6521;50.498;8.474;2024-03-29T11:12:35;10.38;79.97
12907;DHT22;6521;50.498;8.474;2024-03-29T11:15:17;10.45;80.30
12907;DHT22;6521;50.498;8.474;2024-03-29T11:17:51;10.50;80.44
12907;DHT22;6521;50.498;8.474;2024-03-29T11:20:27;10.57;80.38
12907;DHT22;6521;50.498;8.474;2024-03-29T11:23:20;10.68;80.17
12907;DHT22;6521;50.498;8.474;2024-03-29T11:25:53;10.70;79.47
12907;DHT22;6521;50.498;8.474;2024-03-29T11:28:34;10.61;80.08
12907;DHT22;6521;50.498;8.474;2024-03-29T11:31:07;10.61;79.80
12907;DHT22;6521;50.498;8.474;2024-03-29T11:33:45;10.50;80.08
12907;DHT22;6521;50.498;8.474;2024-03-29T11:36:21;10.50;80.57
12907;DHT22;6521;50.498;8.474;2024-03-29T11:38:58;10.56;80.19
12907;DHT22;6521;50.498;8.474;2024-03-29T11:41:29;10.59;80.57
12907;DHT22;6521;50.498;8.474;2024-03-29T11:44:02;10.60;80.58
12907;DHT22;6521;50.498;8.474;2024-03-29T11:46:35;10.59;80.73
12907;DHT22;6521;50.498;8.474;2024-03-29T11:49:08;10.53;80.82
12907;DHT22;6521;50.498;8.474;2024-03-29T11:51:41;10.47;81.25
12907;DHT22;6521;50.498;8.474;2024-03-29T11:54:12;10.42;81.47
12907;DHT22;6521;50.498;8.474;2024-03-29T11:56:43;10.39;81.98
12907;DHT22;6521;50.498;8.474;2024-03-29T11:59:14;10.33;82.36
12907;DHT22;6521;50.498;8.474;2024-03-29T12:01:47;10.32;82.81
12907;DHT22;6521;50.498;8.474;2024-03-29T12:04:21;10.35;83.07
12907;DHT22;6521;50.498;8.474;2024-03-29T12:06:58;10.39;83.18
12907;DHT22;6521;50.498;8.474;2024-03-29T12:09:31;10.38;83.34
12907;DHT22;6521;50.498;8.474;2024-03-29T12:12:05;10.43;83.18
12907;DHT22;6521;50.498;8.474;2024-03-29T12:14:50;10.33;84.13
12907;DHT22;6521;50.498;8.474;2024-03-29T12:17:21;10.40;84.65
12907;DHT22;6521;50.498;8.474;2024-03-29T12:19:57;10.45;84.98
12907;DHT22;6521;50.498;8.474;2024-03-29T12:22:32;10.57;84.72
12907;DHT22;6521;50.498;8.474;2024-03-29T12:25:04;10.59;84.53
12907;DHT22;6521;50.498;8.474;2024-03-29T12:27:38;10.53;84.64
12907;DHT22;6521;50.498;8.474;2024-03-29T12:30:09;10.42;85.00
12907;DHT22;6521;50.498;8.474;2024-03-29T12:32:41;10.43;85.16
12907;DHT22;6521;50.498;8.474;2024-03-29T12:35:15;10.50;84.86
12907;DHT22;6521;50.498;8.474;2024-03-29T12:37:50;10.55;85.00
12907;DHT22;6521;50.498;8.474;2024-03-29T12:40:21;10.61;85.04
12907;DHT22;6521;50.498;8.474;2024-03-29T12:42:56;10.59;85.00
12907;DHT22;6521;50.498;8.474;2024-03-29T12:45:31;10.52;85.26
12907;DHT22;6521;50.498;8.474;2024-03-29T12:48:02;10.52;85.47
12907;DHT22;6521;50.498;8.474;2024-03-29T12:50:33;10.42;85.76
12907;DHT22;6521;50.498;8.474;2024-03-29T12:53:09;10.45;85.81
12907;DHT22;6521;50.498;8.474;2024-03-29T12:55:41;10.40;86.13
12907;DHT22;6521;50.498;8.474;2024-03-29T12:58:18;10.43;86.53
12907;DHT22;6521;50.498;8.474;2024-03-29T13:00:52;10.52;86.57
12907;DHT22;6521;50.498;8.474;2024-03-29T13:03:26;10.59;86.36
12907;DHT22;6521;50.498;8.474;2024-03-29T13:05:58;10.63;86.18
12907;DHT22;6521;50.498;8.474;2024-03-29T13:08:30;10.64;86.12
12907;DHT22;6521;50.498;8.474;2024-03-29T13:11:01;10.60;86.26
12907;DHT22;6521;50.498;8.474;2024-03-29T13:13:34;10.63;86.30
12907;DHT22;6521;50.498;8.474;2024-03-29T13:16:07;10.66;86.43
12907;DHT22;6521;50.498;8.474;2024-03-29T13:18:38;10.70;86.41
12907;DHT22;6521;50.498;8.474;2024-03-29T13:21:10;10.71;86.48
12907;DHT22;6521;50.498;8.474;2024-03-29T13:23:42;10.74;86.48
12907;DHT22;6521;50.498;8.474;2024-03-29T13:26:14;10.74;86.59
12907;DHT22;6521;50.498;8.474;2024-03-29T13:28:45;10.80;86.59
12907;DHT22;6521;50.498;8.474;2024-03-29T13:31:16;10.76;86.86
12907;DHT22;6521;50.498;8.474;2024-03-29T13:33:47;10.74;87.04
12907;DHT22;6521;50.498;8.474;2024-03-29T13:36:18;10.77;87.14
12907;DHT22;6521;50.498;8.474;2024-03-29T13:38:49;10.78;87.15
12907;DHT22;6521;50.498;8.474;2024-03-29T13:41:22;10.93;87.03
12907;DHT22;6521;50.498;8.474;2024-03-29T13:43:53;10.90;87.08
12907;DHT22;6521;50.498;8.474;2024-03-29T13:46:25;11.10;86.82
12907;DHT22;6521;50.498;8.474;2024-03-29T13:48:55;11.14;86.73
12907;DHT22;6521;50.498;8.474;2024-03-29T13:51:27;11.29;86.28
12907;DHT22;6521;50.498;8.474;2024-03-29T13:54:05;11.45;86.00
12907;DHT22;6521;50.498;8.474;2024-03-29T13:56:36;11.54;85.99
12907;DHT22;6521;50.498;8.474;2024-03-29T13:59:07;11.56;85.62
12907;DHT22;6521;50.498;8.474;2024-03-29T14:01:38;11.61;85.58
12907;DHT22;6521;50.498;8.474;2024-03-29T14:04:11;11.65;85.27
12907;DHT22;6521;50.498;8.474;2024-03-29T14:06:43;11.59;85.08
12907;DHT22;6521;50.498;8.474;2024-03-29T14:09:13;11.56;85.23
12907;DHT22;6521;50.498;8.474;2024-03-29T14:11:44;11.58;85.12
12907;DHT22;6521;50.498;8.474;2024-03-29T14:14:15;11.59;85.10
12907;DHT22;6521;50.498;8.474;2024-03-29T14:16:47;11.63;84.88
12907;DHT22;6521;50.498;8.474;2024-03-29T14:19:17;11.65;84.66
12907;DHT22;6521;50.498;8.474;2024-03-29T14:21:48;11.58;84.42
12907;DHT22;6521;50.498;8.474;2024-03-29T14:24:19;11.52;84.56
12907;DHT22;6521;50.498;8.474;2024-03-29T14:26:51;11.52;84.59
12907;DHT22;6521;50.498;8.474;2024-03-29T14:29:26;11.49;84.45
12907;DHT22;6521;50.498;8.474;2024-03-29T14:31:57;11.59;84.62
12907;DHT22;6521;50.498;8.474;2024-03-29T14:34:28;11.58;84.55
12907;DHT22;6521;50.498;8.474;2024-03-29T14:37:03;11.67;84.42
12907;DHT22;6521;50.498;8.474;2024-03-29T14:39:34;11.69;84.35
12907;DHT22;6521;50.498;8.474;2024-03-29T14:42:06;11.61;84.19
12907;DHT22;6521;50.498;8.474;2024-03-29T14:44:40;11.58;84.27
12907;DHT22;6521;50.498;8.474;2024-03-29T14:47:11;11.52;84.14
12907;DHT22;6521;50.498;8.474;2024-03-29T14:49:47;11.56;84.16
12907;DHT22;6521;50.498;8.474;2024-03-29T14:52:19;11.49;84.51
12907;DHT22;6521;50.498;8.474;2024-03-29T14:54:50;11.47;84.16
12907;DHT22;6521;50.498;8.474;2024-03-29T14:57:22;11.43;84.36
12907;DHT22;6521;50.498;8.474;2024-03-29T14:59:54;11.51;84.38
12907;DHT22;6521;50.498;8.474;2024-03-29T15:02:25;11.49;84.57
12907;DHT22;6521;50.498;8.474;2024-03-29T15:04:56;11.56;84.68
12907;DHT22;6521;50.498;8.474;2024-03-29T15:07:29;11.63;84.68
12907;DHT22;6521;50.498;8.474;2024-03-29T15:10:00;11.62;84.82
12907;DHT22;6521;50.498;8.474;2024-03-29T15:12:34;11.59;84.79
12907;DHT22;6521;50.498;8.474;2024-03-29T15:15:05;11.52;85.12
12907;DHT22;6521;50.498;8.474;2024-03-29T15:17:37;11.58;85.00
12907;DHT22;6521;50.498;8.474;2024-03-29T15:20:09;11.47;85.28
12907;DHT22;6521;50.498;8.474;2024-03-29T15:22:42;11.51;85.10
12907;DHT22;6521;50.498;8.474;2024-03-29T15:25:17;11.40;85.45
12907;DHT22;6521;50.498;8.474;2024-03-29T15:27:49;11.43;85.63
12907;DHT22;6521;50.498;8.474;2024-03-29T15:30:38;11.34;85.93
12907;DHT22;6521;50.498;8.474;2024-03-29T15:33:17;11.35;86.13
12907;DHT22;6521;50.498;8.474;2024-03-29T15:35:51;11.40;86.41
12907;DHT22;6521;50.498;8.474;2024-03-29T15:38:22;11.36;86.47
12907;DHT22;6521;50.498;8.474;2024-03-29T15:40:59;11.36;86.48
12907;DHT22;6521;50.498;8.474;2024-03-29T15:43:30;11.36;86.65
12907;DHT22;6521;50.498;8.474;2024-03-29T15:46:04;11.31;86.70
12907;DHT22;6521;50.498;8.474;2024-03-29T15:48:35;11.24;86.89
12907;DHT22;6521;50.498;8.474;2024-03-29T15:51:06;11.19;86.97
12907;DHT22;6521;50.498;8.474;2024-03-29T15:53:43;11.18;87.09
12907;DHT22;6521;50.498;8.474;2024-03-29T15:56:16;11.18;87.06
12907;DHT22;6521;50.498;8.474;2024-03-29T15:58:47;11.19;87.10
12907;DHT22;6521;50.498;8.474;2024-03-29T16:01:25;11.22;86.94
12907;DHT22;6521;50.498;8.474;2024-03-29T16:03:57;11.12;87.08
12907;DHT22;6521;50.498;8.474;2024-03-29T16:06:28;11.07;87.26
12907;DHT22;6521;50.498;8.474;2024-03-29T16:08:59;11.11;87.33
12907;DHT22;6521;50.498;8.474;2024-03-29T16:11:39;11.05;87.39
12907;DHT22;6521;50.498;8.474;2024-03-29T16:14:10;10.98;87.48
12907;DHT22;6521;50.498;8.474;2024-03-29T16:16:41;11.03;87.33
12907;DHT22;6521;50.498;8.474;2024-03-29T16:19:12;11.01;87.26
12907;DHT22;6521;50.498;8.474;2024-03-29T16:21:48;11.00;87.17
12907;DHT22;6521;50.498;8.474;2024-03-29T16:24:19;11.04;87.08
12907;DHT22;6521;50.498;8.474;2024-03-29T16:26:51;11.04;87.03
12907;DHT22;6521;50.498;8.474;2024-03-29T16:29:23;10.96;87.13
12907;DHT22;6521;50.498;8.474;2024-03-29T16:31:56;10.93;87.31
12907;DHT22;6521;50.498;8.474;2024-03-29T16:34:26;10.90;87.38